Terminal Aerodrome Forecast
Issued by NWS Amarillo, TX

Home | Current Version | Previous Version | Text Only | Print | Product List | Glossary On
Versions: 1 2 3 4 5 6 7 8 9 10 11 12 13 14 15 16 17 18
398
FTUS44 KAMA 180042 AAA
TAFAMA
TAF AMD
KAMA 180042Z 1801/1824 16012KT P6SM SCT050 SCT120 BKN300
      TEMPO 1801/1802 -TSRA BKN045CB
     FM180200 16011KT P6SM SCT050 SCT120 BKN300
     FM181500 21012KT P6SM SCT060=

USA.gov is the U.S. government's official web portal to all federal, state and local government web resources and services.